North Walsham, United Kingdom
Current Conditions -  °F | °C
As of 2:20 AM on Saturday 29 Nov 2014 (Local Time) from EGSH Reporting Station
Clear Clear  
Wind Chill: 10°   Ceiling: Unl
Heat Index: 10°   Visibility: 4mi
Dew Point:   Wind: 13mph
Humidity: 94%   Direction: 80°E
Pressure: 29.83"   Gusts: NA
Location:  52.82°N, 1.39°E
Report Text: EGSH 290220Z AUTO 08011KT 6000 NCD 10/09 Q1010
Loading
Personal Weather Stations






























Interactive Weather Map New forecast layout! Learn more

10-Day Weather Forecast

Advertisements
Track Severe Weather on mobile